createdAt,value
2023-03-04T00:01:37.148Z,20.58
2023-03-04T00:01:59.305Z,0
2023-03-04T00:04:04.133Z,18.25
2023-03-04T00:06:31.053Z,21.30
2023-03-04T00:08:57.877Z,18.55
2023-03-04T00:11:25.483Z,20.08
2023-03-04T00:13:52.595Z,15.27
2023-03-04T00:16:19.801Z,20.83
2023-03-04T00:17:50.718Z,0
2023-03-04T00:18:46.663Z,19.73
2023-03-04T00:21:13.596Z,17.42
2023-03-04T00:23:40.374Z,19.10
2023-03-04T00:26:07.549Z,18.73
2023-03-04T00:31:21.143Z,16.83
2023-03-04T00:32:55.487Z,0
2023-03-04T00:33:48.041Z,20.15
2023-03-04T00:36:14.808Z,17.92
2023-03-04T00:36:22.552Z,0
2023-03-04T00:38:41.720Z,18.55
2023-03-04T00:41:08.602Z,21.05
2023-03-04T00:43:35.384Z,17.50
2023-03-04T00:46:02.545Z,17.40
2023-03-04T00:48:29.346Z,13.88
2023-03-04T00:50:56.161Z,17.02
2023-03-04T00:56:10.412Z,20.35
2023-03-04T01:01:23.964Z,16.70
2023-03-04T01:06:37.411Z,18.90
2023-03-04T01:11:51.059Z,17.13
2023-03-04T01:14:17.820Z,11.82
2023-03-04T01:16:44.825Z,14.90
2023-03-04T01:19:12.033Z,18.35
2023-03-04T01:21:38.776Z,16.27
2023-03-04T01:24:05.816Z,11.73
2023-03-04T01:26:32.575Z,13.98
2023-03-04T01:28:59.405Z,14.35
2023-03-04T01:31:26.157Z,13.90
2023-03-04T01:33:53.027Z,15.65
2023-03-04T01:36:19.830Z,13.70
2023-03-04T01:38:46.601Z,14.90
2023-03-04T01:41:14.199Z,15.57
2023-03-04T01:43:41.069Z,17.55
2023-03-04T01:46:09.273Z,13.00
2023-03-04T01:48:38.662Z,13.25
2023-03-04T01:51:07.131Z,17.02
2023-03-04T01:53:34.182Z,12.00
2023-03-04T01:56:10.946Z,14.00
2023-03-04T02:01:24.597Z,12.80
2023-03-04T02:03:51.379Z,12.07
2023-03-04T02:06:18.117Z,10.65
2023-03-04T02:08:44.883Z,10.48
2023-03-04T02:11:11.688Z,9.82
2023-03-04T02:13:38.436Z,11.80
2023-03-04T02:16:05.384Z,12.88
2023-03-04T02:18:32.213Z,14.40
2023-03-04T02:21:08.447Z,12.60
2023-03-04T02:23:46.972Z,13.48
2023-03-04T02:26:20.768Z,14.90
2023-03-04T02:28:49.644Z,14.07
2023-03-04T02:31:33.145Z,11.35
2023-03-04T02:34:06.425Z,12.05
2023-03-04T02:36:34.741Z,12.50
2023-03-04T02:39:07.879Z,8.18
2023-03-04T02:41:34.892Z,9.15
2023-03-04T02:46:50.163Z,11.57
2023-03-04T02:49:18.184Z,9.43
2023-03-04T02:51:45.014Z,14.05
2023-03-04T02:54:19.708Z,9.68
2023-03-04T02:59:39.688Z,10.38
2023-03-04T03:02:07.480Z,12.20
2023-03-04T03:04:36.224Z,12.65
2023-03-04T03:07:03.139Z,12.30
2023-03-04T03:09:29.890Z,9.15
2023-03-04T03:11:56.723Z,11.25
2023-03-04T03:14:23.476Z,12.30
2023-03-04T03:19:36.929Z,12.60
2023-03-04T03:24:50.594Z,15.55
2023-03-04T03:30:05.451Z,12.30
2023-03-04T03:32:32.392Z,10.05
2023-03-04T03:34:59.356Z,11.88
2023-03-04T03:37:26.119Z,10.88
2023-03-04T03:39:52.898Z,10.27
2023-03-04T03:42:19.648Z,9.85
2023-03-04T03:44:46.418Z,10.88
2023-03-04T03:47:13.209Z,11.60
2023-03-04T03:49:40.035Z,10.63
2023-03-04T03:52:06.866Z,13.13
2023-03-04T03:54:33.794Z,11.48
2023-03-04T03:57:00.550Z,11.02
2023-03-04T03:59:27.325Z,11.02
2023-03-04T04:01:54.191Z,12.68
2023-03-04T04:06:47.798Z,14.25
2023-03-04T04:09:14.541Z,11.93
2023-03-04T04:14:28.009Z,11.63
2023-03-04T04:19:41.984Z,16.00
2023-03-04T04:25:01.929Z,10.50
2023-03-04T04:30:15.569Z,9.73
2023-03-04T04:35:29.100Z,9.68
2023-03-04T04:40:42.518Z,11.65
2023-03-04T04:43:09.318Z,10.30
2023-03-04T04:45:36.149Z,8.93
2023-03-04T04:48:02.905Z,10.25
2023-03-04T04:50:32.505Z,10.45
2023-03-04T04:52:59.773Z,9.15
2023-03-04T04:55:26.640Z,10.25
2023-03-04T04:57:53.458Z,10.55
2023-03-04T05:00:20.501Z,9.73
2023-03-04T05:02:47.282Z,11.10
2023-03-04T05:05:14.176Z,9.27
2023-03-04T05:07:40.958Z,12.15
2023-03-04T05:10:08.380Z,10.60
2023-03-04T05:12:35.121Z,8.52
2023-03-04T05:15:01.877Z,9.80
2023-03-04T05:17:28.736Z,11.52
2023-03-04T05:19:55.510Z,10.80
2023-03-04T05:22:22.272Z,9.90
2023-03-04T05:24:49.114Z,9.07
2023-03-04T05:27:15.886Z,10.40
2023-03-04T05:29:42.655Z,7.60
2023-03-04T05:32:09.444Z,11.18
2023-03-04T05:34:36.217Z,12.00
2023-03-04T05:37:02.972Z,11.77
2023-03-04T05:39:29.721Z,13.43
2023-03-04T05:41:56.535Z,11.27
2023-03-04T05:44:23.308Z,13.73
2023-03-04T05:46:50.169Z,12.07
2023-03-04T05:49:17.026Z,15.35
2023-03-04T05:54:30.623Z,14.57
2023-03-04T05:59:44.166Z,9.68
2023-03-04T06:04:57.585Z,13.32
2023-03-04T06:07:24.337Z,11.77
2023-03-04T06:09:51.125Z,13.98
2023-03-04T06:12:17.951Z,12.27
2023-03-04T06:14:44.700Z,13.33
2023-03-04T06:17:11.468Z,14.23
2023-03-04T06:19:38.244Z,16.23
2023-03-04T06:22:05.780Z,14.52
2023-03-04T06:24:32.526Z,17.65
2023-03-04T06:26:59.358Z,15.55
2023-03-04T06:29:26.319Z,14.43
2023-03-04T06:31:53.351Z,14.07
2023-03-04T06:34:20.349Z,13.27
2023-03-04T06:36:47.353Z,13.03
2023-03-04T06:39:14.353Z,10.88
2023-03-04T06:41:41.189Z,14.73
2023-03-04T06:44:08.052Z,13.48
2023-03-04T06:46:35.864Z,15.82
2023-03-04T06:49:02.964Z,13.35
2023-03-04T06:51:29.985Z,18.63
2023-03-04T06:53:56.884Z,20.67
2023-03-04T06:56:23.772Z,16.35
2023-03-04T06:58:50.542Z,14.57
2023-03-04T07:01:20.384Z,19.17
2023-03-04T07:03:48.780Z,22.80
2023-03-04T07:06:17.617Z,14.98
2023-03-04T07:08:45.281Z,18.10
2023-03-04T07:11:12.606Z,23.95
2023-03-04T07:13:39.565Z,18.73
2023-03-04T07:16:08.525Z,18.70
2023-03-04T07:18:36.675Z,17.25
2023-03-04T07:21:03.760Z,20.90
2023-03-04T07:23:30.661Z,23.95
2023-03-04T07:25:59.617Z,18.30
2023-03-04T07:28:27.196Z,17.98
2023-03-04T07:30:54.038Z,22.95
2023-03-04T07:33:21.066Z,23.90
2023-03-04T07:35:47.909Z,17.67
2023-03-04T07:38:14.724Z,20.13
2023-03-04T07:40:41.554Z,20.25
2023-03-04T07:43:08.293Z,18.63
2023-03-04T07:45:35.091Z,24.23
2023-03-04T07:48:01.872Z,20.13
2023-03-04T07:50:28.802Z,21.73
2023-03-04T07:55:42.243Z,21.80
2023-03-04T08:00:55.734Z,18.77
2023-03-04T08:03:22.589Z,20.33
2023-03-04T08:05:50.222Z,21.60
2023-03-04T08:08:17.477Z,19.98
2023-03-04T08:13:31.538Z,18.33
2023-03-04T08:15:58.497Z,15.80
2023-03-04T08:18:25.618Z,16.35
2023-03-04T08:20:52.381Z,18.25
2023-03-04T08:23:19.758Z,15.13
2023-03-04T08:25:47.300Z,15.30
2023-03-04T08:28:14.315Z,19.47
2023-03-04T08:30:41.419Z,17.67
2023-03-04T08:33:09.196Z,17.33
2023-03-04T08:35:40.165Z,18.25
2023-03-04T08:38:07.426Z,20.20
2023-03-04T08:40:34.222Z,16.27
2023-03-04T08:43:01.097Z,16.63
2023-03-04T08:45:27.874Z,19.58
2023-03-04T08:47:54.710Z,16.65
2023-03-04T08:50:22.535Z,15.68
2023-03-04T08:52:49.424Z,15.00
2023-03-04T08:55:16.297Z,17.75
2023-03-04T08:57:43.372Z,22.85
2023-03-04T09:00:10.905Z,17.20
2023-03-04T09:02:37.743Z,19.58
2023-03-04T09:05:05.279Z,18.67
2023-03-04T09:07:32.055Z,19.52
2023-03-04T09:09:58.888Z,18.38
2023-03-04T09:12:25.634Z,18.15
2023-03-04T09:15:08.372Z,18.48
2023-03-04T09:17:37.889Z,17.70
2023-03-04T09:20:05.622Z,18.85
2023-03-04T09:22:32.429Z,18.08
2023-03-04T09:24:59.175Z,16.93
2023-03-04T09:27:25.940Z,18.02
2023-03-04T09:29:52.729Z,16.80
2023-03-04T09:32:19.632Z,20.25
2023-03-04T09:34:46.711Z,25.08
2023-03-04T09:37:13.532Z,19.83
2023-03-04T09:39:40.449Z,21.13
2023-03-04T09:42:10.465Z,19.33
2023-03-04T09:44:43.391Z,24.30
2023-03-04T09:47:16.421Z,22.40
2023-03-04T09:49:54.582Z,19.75
2023-03-04T09:52:21.400Z,22.77
2023-03-04T09:55:05.039Z,18.80
2023-03-04T09:57:53.093Z,18.85
2023-03-04T10:00:30.769Z,22.92
2023-03-04T10:03:09.571Z,16.23
2023-03-04T10:05:44.374Z,20.13
2023-03-04T10:08:30.088Z,20.80
2023-03-04T10:10:59.693Z,21.63
2023-03-04T10:13:35.588Z,22.73
2023-03-04T10:16:04.816Z,21.00
2023-03-04T10:24:33.329Z,18.30
2023-03-04T10:27:10.592Z,21.10
2023-03-04T10:29:37.321Z,16.52
2023-03-04T10:32:04.107Z,17.25
2023-03-04T10:37:17.596Z,23.15
2023-03-04T10:42:34.981Z,24.38
2023-03-04T10:47:56.167Z,21.80
2023-03-04T10:50:28.373Z,22.90
2023-03-04T10:52:56.758Z,31.27
2023-03-04T10:55:30.160Z,23.57
2023-03-04T10:58:04.295Z,20.40
2023-03-04T11:00:36.658Z,23.00
2023-03-04T11:03:29.803Z,25.15
2023-03-04T11:06:17.577Z,21.30
2023-03-04T11:08:44.859Z,22.25
2023-03-04T11:11:37.857Z,23.70
2023-03-04T11:14:24.718Z,23.48
2023-03-04T11:17:02.933Z,23.73
2023-03-04T11:19:39.072Z,24.48
2023-03-04T11:22:06.437Z,22.23
2023-03-04T11:24:36.897Z,23.35
2023-03-04T11:27:22.640Z,16.80
2023-03-04T11:29:57.696Z,20.50
2023-03-04T11:38:49.298Z,21.92
2023-03-04T11:41:39.526Z,21.80
2023-03-04T11:45:35.550Z,0
2023-03-04T11:47:22.733Z,21.83
2023-03-04T11:50:01.392Z,21.08
2023-03-04T11:52:40.074Z,22.08
2023-03-04T11:55:22.024Z,20.98
2023-03-04T11:58:04.118Z,22.17
2023-03-04T12:01:00.050Z,23.45
2023-03-04T12:04:02.652Z,20.50
2023-03-04T12:06:51.841Z,24.63
2023-03-04T12:09:40.587Z,19.75
2023-03-04T12:12:35.125Z,22.50
2023-03-04T12:15:05.861Z,20.33
2023-03-04T12:17:50.617Z,21.20
2023-03-04T12:20:43.749Z,21.85
2023-03-04T12:23:24.102Z,22.13
2023-03-04T12:26:02.733Z,19.40
2023-03-04T12:31:42.419Z,16.00
2023-03-04T12:34:27.867Z,17.38
2023-03-04T12:37:30.888Z,16.73
2023-03-04T12:40:19.490Z,15.15
2023-03-04T12:43:09.925Z,16.67
2023-03-04T12:45:54.347Z,19.52
2023-03-04T12:48:32.387Z,15.23
2023-03-04T12:51:27.814Z,17.98
2023-03-04T12:54:01.895Z,16.55
2023-03-04T12:56:40.833Z,18.17
2023-03-04T12:59:13.940Z,17.58
2023-03-04T13:01:56.400Z,18.25
2023-03-04T13:05:00.901Z,14.93
2023-03-04T13:07:39.871Z,21.58
2023-03-04T13:10:16.410Z,16.58
2023-03-04T13:12:58.516Z,16.30
2023-03-04T13:21:22.317Z,13.52
2023-03-04T13:23:53.735Z,17.40
2023-03-04T13:26:43.198Z,15.07
2023-03-04T13:29:19.174Z,14.57
2023-03-04T13:32:10.462Z,14.20
2023-03-04T13:34:53.497Z,13.13
2023-03-04T13:40:22.094Z,11.55
2023-03-04T13:45:35.265Z,13.05
2023-03-04T13:50:52.122Z,11.73
2023-03-04T13:51:32.657Z,0
2023-03-04T13:53:27.425Z,15.90
2023-03-04T13:56:25.248Z,16.02
2023-03-04T13:59:04.336Z,14.18
2023-03-04T14:01:33.927Z,14.20
2023-03-04T14:04:10.680Z,13.85
2023-03-04T14:06:43.173Z,12.88
2023-03-04T14:09:15.300Z,13.00
2023-03-04T14:11:43.555Z,13.40
2023-03-04T14:14:20.352Z,16.20
2023-03-04T14:17:09.547Z,13.07
2023-03-04T14:19:44.822Z,16.65
2023-03-04T14:22:21.842Z,16.08
2023-03-04T14:24:57.444Z,14.67
2023-03-04T14:30:41.614Z,12.43
2023-03-04T14:33:40.905Z,16.45
2023-03-04T14:36:18.478Z,14.98
2023-03-04T14:38:49.901Z,17.13
2023-03-04T14:44:20.698Z,14.27
2023-03-04T14:47:06.902Z,15.70
2023-03-04T14:49:36.422Z,14.52
2023-03-04T14:52:03.519Z,15.75
2023-03-04T14:54:37.671Z,15.27
2023-03-04T14:57:22.350Z,12.60
2023-03-04T14:59:49.590Z,15.30
2023-03-04T15:05:26.909Z,17.48
2023-03-04T15:08:24.755Z,15.77
2023-03-04T15:11:21.140Z,14.48
2023-03-04T15:13:51.415Z,13.70
2023-03-04T15:16:21.462Z,13.83
2023-03-04T15:19:05.685Z,14.73
2023-03-04T15:21:37.990Z,16.73
2023-03-04T15:24:06.649Z,15.10
2023-03-04T15:26:37.708Z,12.10
2023-03-04T15:29:15.252Z,14.80
2023-03-04T15:31:42.288Z,11.13
2023-03-04T15:34:13.897Z,12.18
2023-03-04T15:36:41.030Z,9.90
2023-03-04T15:39:12.644Z,9.65
2023-03-04T15:41:39.559Z,7.93
2023-03-04T15:44:06.412Z,8.80
2023-03-04T15:46:33.561Z,6.43
2023-03-04T15:49:00.379Z,11.02
2023-03-04T15:51:27.337Z,10.40
2023-03-04T15:53:56.832Z,9.40
2023-03-04T15:56:26.438Z,8.48
2023-03-04T15:59:12.026Z,6.90
2023-03-04T16:01:38.928Z,8.68
2023-03-04T16:04:05.969Z,7.85
2023-03-04T16:06:33.495Z,8.50
2023-03-04T16:09:00.937Z,7.75
2023-03-04T16:11:30.572Z,7.13
2023-03-04T16:13:57.476Z,7.65
2023-03-04T16:16:24.330Z,8.73
2023-03-04T16:18:51.068Z,8.10
2023-03-04T16:21:20.238Z,7.82
2023-03-04T16:23:49.868Z,10.32
2023-03-04T16:26:24.139Z,7.15
2023-03-04T16:28:52.577Z,7.45
2023-03-04T16:31:20.968Z,7.35
2023-03-04T16:33:48.200Z,7.28
2023-03-04T16:39:20.143Z,15.20
2023-03-04T16:41:46.902Z,9.70
2023-03-04T16:44:13.705Z,7.03
2023-03-04T16:46:41.224Z,8.10
2023-03-04T16:49:08.114Z,5.95
2023-03-04T16:51:40.504Z,4.13
2023-03-04T16:54:12.386Z,5.20
2023-03-04T16:56:39.192Z,5.18
2023-03-04T16:59:06.070Z,5.50
2023-03-04T17:01:33.090Z,8.00
2023-03-04T17:03:59.991Z,4.77
2023-03-04T17:06:26.768Z,5.68
2023-03-04T17:08:53.528Z,6.25
2023-03-04T17:11:22.648Z,6.03
2023-03-04T17:13:50.545Z,4.55
2023-03-04T17:16:17.493Z,6.30
2023-03-04T17:18:44.705Z,7.07
2023-03-04T17:21:14.113Z,4.80
2023-03-04T17:23:40.902Z,4.70
2023-03-04T17:26:07.878Z,5.65
2023-03-04T17:28:34.641Z,5.05
2023-03-04T17:31:01.449Z,7.05
2023-03-04T17:33:28.309Z,8.80
2023-03-04T17:35:55.205Z,6.35
2023-03-04T17:38:22.055Z,5.40
2023-03-04T17:43:15.550Z,3.80
2023-03-04T17:45:42.948Z,7.13
2023-03-04T17:50:57.892Z,4.40
2023-03-04T17:56:12.409Z,5.18
2023-03-04T18:01:27.015Z,4.40
2023-03-04T18:03:54.399Z,6.82
2023-03-04T18:06:22.003Z,4.20
2023-03-04T18:08:49.134Z,5.87
2023-03-04T18:11:16.267Z,3.83
2023-03-04T18:13:44.007Z,4.97
2023-03-04T18:16:12.149Z,5.97
2023-03-04T18:18:38.982Z,5.80
2023-03-04T18:21:06.037Z,4.70
2023-03-04T18:23:33.411Z,5.47
2023-03-04T18:26:00.249Z,3.90
2023-03-04T18:28:27.062Z,10.35
2023-03-04T18:30:54.466Z,12.07
2023-03-04T18:33:21.453Z,4.88
2023-03-04T18:35:48.357Z,4.93
2023-03-04T18:38:15.184Z,4.30
2023-03-04T18:40:43.079Z,5.10
2023-03-04T18:43:09.865Z,7.80
2023-03-04T18:45:36.687Z,6.57
2023-03-04T18:48:03.662Z,10.70
2023-03-04T18:53:17.081Z,9.40
2023-03-04T18:58:33.594Z,7.90
2023-03-04T19:01:03.036Z,3.60
2023-03-04T19:03:30.093Z,5.78
2023-03-04T19:05:57.137Z,4.78
2023-03-04T19:11:10.737Z,4.65
2023-03-04T19:16:24.740Z,5.65
2023-03-04T19:21:39.376Z,9.98
2023-03-04T19:24:06.572Z,4.40
2023-03-04T19:26:33.584Z,6.53
2023-03-04T19:29:00.345Z,5.40
2023-03-04T19:31:27.221Z,5.20
2023-03-04T19:33:54.004Z,4.25
2023-03-04T19:36:20.872Z,7.97
2023-03-04T19:38:47.642Z,5.60
2023-03-04T19:41:16.471Z,4.22
2023-03-04T19:43:43.675Z,6.82
2023-03-04T19:46:11.023Z,6.60
2023-03-04T19:48:39.012Z,6.55
2023-03-04T19:51:16.880Z,7.72
2023-03-04T19:56:30.854Z,8.80
2023-03-04T20:01:44.730Z,6.03
2023-03-04T20:07:03.247Z,8.85
2023-03-04T20:12:01.301Z,0
2023-03-04T20:12:16.801Z,9.45
2023-03-04T20:14:43.565Z,11.00
2023-03-04T20:17:12.525Z,15.98
2023-03-04T20:19:39.302Z,12.18
2023-03-04T20:22:06.209Z,10.63
2023-03-04T20:24:33.061Z,10.57
2023-03-04T20:26:59.844Z,8.40
2023-03-04T20:29:26.706Z,7.05
2023-03-04T20:31:53.600Z,14.13
2023-03-04T20:34:20.427Z,9.18
2023-03-04T20:36:47.185Z,12.32
2023-03-04T20:39:28.104Z,12.60
2023-03-04T20:41:57.179Z,11.77
2023-03-04T20:44:23.987Z,12.85
2023-03-04T20:46:51.193Z,13.80
2023-03-04T20:49:24.205Z,10.95
2023-03-04T20:51:53.016Z,12.18
2023-03-04T20:56:47.829Z,13.60
2023-03-04T20:59:15.079Z,13.98
2023-03-04T21:04:32.590Z,14.48
2023-03-04T21:07:01.712Z,15.10
2023-03-04T21:09:29.017Z,12.23
2023-03-04T21:11:55.908Z,12.75
2023-03-04T21:14:26.856Z,12.80
2023-03-04T21:16:56.436Z,14.30
2023-03-04T21:19:26.562Z,9.00
2023-03-04T21:21:54.384Z,14.88
2023-03-04T21:24:24.346Z,11.85
2023-03-04T21:26:51.313Z,13.05
2023-03-04T21:29:20.326Z,9.85
2023-03-04T21:31:50.378Z,11.57
2023-03-04T21:32:28.308Z,0
2023-03-04T21:34:28.266Z,10.48
2023-03-04T21:36:55.053Z,10.43
2023-03-04T21:39:24.098Z,12.55
2023-03-04T21:41:51.284Z,11.38
2023-03-04T21:44:28.152Z,11.05
2023-03-04T21:47:00.592Z,14.43
2023-03-04T21:52:14.857Z,11.40
2023-03-04T21:57:28.349Z,10.80
2023-03-04T22:02:41.792Z,10.32
2023-03-04T22:05:08.684Z,13.65
2023-03-04T22:07:35.417Z,11.57
2023-03-04T22:10:02.335Z,12.20
2023-03-04T22:12:29.219Z,10.02
2023-03-04T22:14:55.966Z,10.80
2023-03-04T22:16:58.419Z,0
2023-03-04T22:17:22.854Z,10.25
2023-03-04T22:19:49.676Z,11.20
2023-03-04T22:25:03.759Z,9.38
2023-03-04T22:30:17.486Z,10.20
2023-03-04T22:32:45.407Z,11.27
2023-03-04T22:35:12.285Z,12.20
2023-03-04T22:37:39.089Z,6.93
2023-03-04T22:40:06.481Z,8.35
2023-03-04T22:42:34.078Z,9.25
2023-03-04T22:45:00.908Z,8.63
2023-03-04T22:47:27.751Z,10.63
2023-03-04T22:49:54.486Z,8.02
2023-03-04T22:52:21.216Z,11.63
2023-03-04T22:54:47.957Z,9.53
2023-03-04T22:57:14.708Z,9.85
2023-03-04T22:59:41.476Z,9.07
2023-03-04T23:02:08.308Z,9.07
2023-03-04T23:07:21.832Z,8.30
2023-03-04T23:12:36.120Z,9.32
2023-03-04T23:17:51.218Z,9.95
2023-03-04T23:23:07.032Z,12.45
2023-03-04T23:28:24.549Z,9.07
2023-03-04T23:33:37.993Z,7.30
2023-03-04T23:36:05.024Z,8.55
2023-03-04T23:38:31.761Z,7.03
2023-03-04T23:40:58.487Z,8.85
2023-03-04T23:43:25.329Z,8.20
2023-03-04T23:45:52.569Z,7.88
2023-03-04T23:48:19.332Z,11.75
2023-03-04T23:53:38.695Z,9.30
2023-03-04T23:59:13.657Z,9.95
